createdAt,value
2022-12-20T00:00:56.836Z,1464.00
2022-12-20T00:01:57.012Z,1464.00
2022-12-20T00:03:57.381Z,1467.00
2022-12-20T00:04:56.661Z,1464.00
2022-12-20T00:05:56.648Z,1462.00
2022-12-20T00:06:56.685Z,1461.00
2022-12-20T00:07:56.677Z,1461.00
2022-12-20T00:08:58.218Z,1463.00
2022-12-20T00:09:57.306Z,1460.00
2022-12-20T00:10:56.614Z,1460.00
2022-12-20T00:11:56.578Z,1461.00
2022-12-20T00:12:56.587Z,1462.00
2022-12-20T00:13:56.626Z,1464.00
2022-12-20T00:15:56.845Z,1469.00
2022-12-20T00:16:56.623Z,1474.00
2022-12-20T00:17:56.589Z,1474.00
2022-12-20T00:18:56.519Z,1477.00
2022-12-20T00:19:56.529Z,1476.00
2022-12-20T00:20:56.542Z,1481.00
2022-12-20T00:21:58.408Z,1483.00
2022-12-20T00:22:58.290Z,1481.00
2022-12-20T00:23:56.577Z,1485.00
2022-12-20T00:24:56.562Z,1486.00
2022-12-20T00:29:56.536Z,1494.00
2022-12-20T00:30:56.428Z,1488.00
2022-12-20T00:40:57.408Z,1504.00
2022-12-20T00:41:57.408Z,1505.00
2022-12-20T00:55:57.931Z,1513.00
2022-12-20T01:00:57.478Z,1521.00
2022-12-20T01:13:57.950Z,1539.00
2022-12-20T01:26:57.911Z,1557.00
2022-12-20T01:27:57.911Z,1561.00
2022-12-20T01:28:57.913Z,1561.00
2022-12-20T01:47:57.446Z,1595.00
2022-12-20T02:00:58.993Z,1608.00
2022-12-20T02:01:57.634Z,1610.00
2022-12-20T02:02:57.556Z,1615.00
2022-12-20T02:20:57.478Z,1656.00
2022-12-20T02:33:57.461Z,1659.00
2022-12-20T02:34:57.451Z,1655.00
2022-12-20T02:35:57.463Z,1658.00
2022-12-20T02:53:57.361Z,1688.00
2022-12-20T03:30:55.178Z,1772.00
2022-12-20T03:32:55.150Z,1866.00
2022-12-20T03:33:55.477Z,1843.00
2022-12-20T03:35:55.073Z,1789.00
2022-12-20T03:36:55.076Z,1786.00
2022-12-20T03:37:55.076Z,1789.00
2022-12-20T03:38:55.104Z,1800.00
2022-12-20T03:39:58.494Z,1816.00
2022-12-20T03:42:55.028Z,1876.00
2022-12-20T03:43:55.045Z,1900.00
2022-12-20T03:44:55.109Z,1945.00
2022-12-20T03:45:55.125Z,1946.00
2022-12-20T03:46:55.475Z,1915.00
2022-12-20T03:47:55.492Z,1863.00
2022-12-20T03:48:55.476Z,1851.00
2022-12-20T03:50:55.002Z,1821.00
2022-12-20T03:51:55.014Z,1821.00
2022-12-20T03:52:54.987Z,1823.00
2022-12-20T03:54:54.996Z,1829.00
2022-12-20T03:55:54.922Z,1831.00
2022-12-20T03:56:54.912Z,1835.00
2022-12-20T03:57:54.909Z,1839.00
2022-12-20T03:58:54.920Z,1848.00
2022-12-20T03:59:55.050Z,1842.00
2022-12-20T04:00:56.368Z,1845.00
2022-12-20T04:01:55.572Z,1845.00
2022-12-20T04:02:54.977Z,1848.00
2022-12-20T04:03:54.927Z,1851.00
2022-12-20T04:04:54.868Z,1850.00
2022-12-20T04:05:54.890Z,1847.00
2022-12-20T04:06:54.996Z,1842.00
2022-12-20T04:07:54.986Z,1839.00
2022-12-20T04:08:54.797Z,1835.00
2022-12-20T04:09:54.780Z,1838.00
2022-12-20T04:11:54.694Z,1843.00
2022-12-20T04:12:55.006Z,1846.00
2022-12-20T04:13:58.004Z,1849.00
2022-12-20T04:14:57.386Z,1848.00
2022-12-20T04:16:00.063Z,1853.00
2022-12-20T04:16:55.751Z,1852.00
2022-12-20T04:17:54.763Z,1853.00
2022-12-20T04:18:54.749Z,1857.00
2022-12-20T15:39:45.958Z,1048.00
2022-12-20T16:14:42.171Z,680.00
2022-12-20T16:15:42.023Z,680.00
2022-12-20T16:28:40.526Z,678.00
2022-12-20T16:29:40.416Z,676.00
2022-12-20T16:30:40.298Z,673.00
2022-12-20T16:31:40.254Z,674.00
2022-12-20T17:08:56.931Z,632.00
2022-12-20T17:09:56.815Z,629.00
2022-12-20T17:22:57.404Z,603.00
2022-12-20T17:41:32.194Z,593.00
2022-12-20T17:42:32.053Z,591.00
2022-12-20T17:43:31.927Z,589.00
2022-12-20T17:44:31.854Z,590.00
2022-12-20T17:45:31.736Z,594.00
2022-12-20T17:46:31.585Z,593.00
2022-12-20T17:47:31.466Z,593.00
2022-12-20T17:48:34.021Z,589.00
2022-12-20T17:50:31.140Z,587.00
2022-12-20T17:51:31.036Z,587.00
2022-12-20T17:52:30.904Z,586.00
2022-12-20T17:53:30.785Z,584.00
2022-12-20T17:54:38.549Z,583.00
2022-12-20T17:55:31.539Z,581.00
2022-12-20T18:37:25.674Z,543.00
2022-12-20T18:38:25.569Z,537.00
2022-12-20T18:39:25.456Z,537.00
2022-12-20T18:40:26.501Z,542.00
2022-12-20T18:41:25.233Z,542.00
2022-12-20T18:42:25.109Z,538.00
2022-12-20T18:43:24.996Z,541.00
2022-12-20T18:44:24.883Z,544.00
2022-12-20T18:45:24.754Z,540.00
2022-12-20T18:46:24.735Z,541.00
2022-12-20T18:47:24.525Z,538.00
2022-12-20T18:48:24.414Z,538.00
2022-12-20T18:49:24.332Z,538.00
2022-12-20T18:50:24.195Z,539.00
2022-12-20T18:51:24.081Z,540.00
2022-12-20T18:52:23.977Z,540.00
2022-12-20T18:53:23.857Z,539.00
2022-12-20T18:54:23.744Z,538.00
2022-12-20T18:55:23.640Z,538.00
2022-12-20T18:56:23.517Z,541.00
2022-12-20T18:57:23.399Z,538.00
2022-12-20T18:58:23.284Z,536.00
2022-12-20T18:59:23.210Z,533.00
2022-12-20T19:00:23.069Z,533.00
2022-12-20T19:01:23.156Z,531.00
2022-12-20T19:02:22.995Z,530.00
2022-12-20T19:03:22.763Z,530.00
2022-12-20T19:04:24.874Z,532.00
2022-12-20T19:05:22.732Z,529.00
2022-12-20T19:06:22.625Z,529.00
2022-12-20T19:07:22.494Z,528.00
2022-12-20T19:08:22.386Z,527.00
2022-12-20T19:09:22.265Z,527.00
2022-12-20T19:10:22.154Z,526.00
2022-12-20T19:11:22.037Z,527.00
2022-12-20T19:12:21.921Z,525.00
2022-12-20T19:13:21.803Z,526.00
2022-12-20T19:14:21.684Z,526.00
2022-12-20T19:15:21.558Z,526.00
2022-12-20T19:16:21.519Z,527.00
2022-12-20T19:17:21.418Z,527.00
2022-12-20T19:18:21.213Z,528.00
2022-12-20T19:19:21.094Z,526.00
2022-12-20T19:20:20.984Z,526.00
2022-12-20T19:21:20.850Z,526.00
2022-12-20T19:22:20.726Z,527.00
2022-12-20T20:00:16.231Z,498.00
2022-12-20T20:01:16.162Z,497.00
2022-12-20T20:02:16.163Z,496.00
2022-12-20T20:03:15.984Z,495.00
2022-12-20T20:04:15.733Z,495.00
2022-12-20T20:05:15.753Z,495.00
2022-12-20T20:06:15.502Z,497.00
2022-12-20T20:07:15.374Z,493.00
2022-12-20T20:08:15.255Z,488.00
2022-12-20T20:09:15.130Z,490.00
2022-12-20T20:10:15.018Z,489.00
2022-12-20T20:11:14.910Z,492.00
2022-12-20T20:12:14.778Z,489.00
2022-12-20T20:13:14.656Z,491.00
2022-12-20T20:14:14.524Z,493.00
2022-12-20T20:15:14.414Z,489.00
2022-12-20T20:16:20.026Z,490.00
2022-12-20T20:17:15.157Z,491.00
2022-12-20T20:18:14.033Z,490.00
2022-12-20T20:19:13.906Z,487.00
2022-12-20T20:20:13.791Z,488.00
2022-12-20T20:21:13.683Z,488.00
2022-12-20T20:22:17.693Z,489.00
2022-12-20T20:23:14.420Z,490.00
2022-12-20T20:24:13.302Z,490.00
2022-12-20T20:25:13.170Z,488.00
2022-12-20T20:26:13.039Z,487.00
2022-12-20T20:27:12.922Z,486.00
2022-12-20T20:28:12.794Z,483.00
2022-12-20T20:29:12.682Z,484.00
2022-12-20T20:30:12.564Z,480.00
2022-12-20T20:31:12.548Z,481.00
2022-12-20T20:32:12.332Z,479.00
2022-12-20T20:33:12.266Z,482.00
2022-12-20T20:34:12.105Z,481.00
2022-12-20T20:35:11.992Z,480.00
2022-12-20T20:36:11.879Z,478.00
2022-12-20T20:37:11.761Z,476.00
2022-12-20T20:38:11.651Z,477.00
2022-12-20T20:39:11.545Z,476.00
2022-12-20T20:40:11.471Z,480.00
2022-12-20T20:41:11.336Z,480.00
2022-12-20T20:42:11.189Z,478.00
2022-12-20T20:43:11.088Z,477.00
2022-12-20T20:44:10.965Z,477.00
2022-12-20T20:45:10.855Z,478.00
2022-12-20T20:46:10.757Z,476.00
2022-12-20T21:38:04.624Z,462.00
2022-12-20T21:39:04.506Z,460.00
2022-12-20T21:40:04.378Z,461.00
2022-12-20T21:41:04.256Z,461.00
2022-12-20T21:42:04.145Z,460.00
2022-12-20T21:43:04.012Z,460.00
2022-12-20T21:44:03.892Z,455.00
2022-12-20T21:45:03.789Z,455.00
2022-12-20T21:46:03.648Z,455.00
2022-12-20T21:47:03.610Z,455.00
2022-12-20T21:48:03.793Z,455.00
2022-12-20T21:49:03.293Z,458.00
2022-12-20T21:50:03.187Z,456.00
2022-12-20T21:51:03.073Z,454.00
2022-12-20T21:52:02.926Z,454.00
2022-12-20T21:53:02.798Z,452.00
2022-12-20T21:54:02.723Z,453.00
2022-12-20T21:55:02.570Z,450.00
2022-12-20T21:56:02.457Z,453.00
2022-12-20T21:57:02.347Z,453.00
2022-12-20T21:58:02.219Z,449.00
2022-12-20T21:59:02.099Z,447.00
2022-12-20T22:00:01.987Z,447.00
2022-12-20T22:01:01.971Z,448.00
2022-12-20T22:02:02.029Z,446.00
2022-12-20T22:03:01.728Z,447.00
2022-12-20T22:04:01.539Z,446.00
2022-12-20T22:05:01.412Z,448.00
2022-12-20T22:06:01.274Z,448.00
2022-12-20T22:07:01.177Z,448.00
2022-12-20T22:08:01.079Z,451.00
2022-12-20T22:09:00.926Z,451.00
2022-12-20T22:10:00.806Z,450.00
2022-12-20T22:11:00.689Z,451.00
2022-12-20T22:22:59.302Z,446.00
2022-12-20T22:23:59.188Z,446.00
2022-12-20T22:24:59.068Z,444.00
2022-12-20T22:25:58.950Z,447.00
2022-12-20T22:26:58.850Z,447.00
2022-12-20T22:27:58.726Z,445.00
2022-12-20T22:28:58.630Z,448.00
2022-12-20T22:29:58.502Z,447.00
2022-12-20T22:30:58.395Z,445.00
2022-12-20T22:31:58.344Z,442.00
2022-12-20T22:32:58.166Z,438.00
2022-12-20T22:33:58.039Z,441.00
2022-12-20T22:34:57.942Z,441.00
2022-12-20T22:35:57.820Z,441.00
2022-12-20T22:36:57.711Z,442.00
2022-12-20T22:37:57.597Z,442.00
2022-12-20T22:38:57.488Z,443.00
2022-12-20T22:39:57.368Z,444.00
2022-12-20T22:40:57.263Z,441.00
2022-12-20T22:41:57.133Z,442.00
2022-12-20T22:42:57.031Z,441.00
2022-12-20T22:43:56.920Z,441.00
2022-12-20T22:44:56.804Z,437.00
2022-12-20T22:45:56.753Z,436.00
2022-12-20T22:46:56.571Z,438.00
2022-12-20T22:47:56.473Z,439.00
2022-12-20T22:48:56.346Z,439.00
2022-12-20T22:49:56.239Z,439.00
2022-12-20T22:50:56.120Z,440.00
2022-12-20T22:52:06.774Z,440.00
2022-12-20T22:52:56.883Z,438.00
2022-12-20T22:53:55.767Z,438.00
2022-12-20T22:54:55.659Z,438.00
2022-12-20T22:55:55.523Z,437.00
2022-12-20T22:56:55.418Z,438.00
2022-12-20T22:57:55.310Z,437.00
2022-12-20T22:58:55.199Z,433.00
2022-12-20T22:59:55.069Z,434.00
2022-12-20T23:00:54.961Z,433.00
2022-12-20T23:01:55.016Z,431.00
2022-12-20T23:02:54.928Z,428.00
2022-12-20T23:03:54.723Z,429.00
2022-12-20T23:04:54.555Z,427.00
2022-12-20T23:05:54.389Z,428.00
2022-12-20T23:06:54.281Z,430.00
2022-12-20T23:07:54.169Z,432.00
2022-12-20T23:08:54.047Z,432.00
2022-12-20T23:09:53.934Z,432.00
2022-12-20T23:10:53.821Z,433.00
2022-12-20T23:11:53.699Z,432.00
2022-12-20T23:12:53.610Z,430.00
2022-12-20T23:13:53.493Z,428.00
2022-12-20T23:14:55.411Z,429.00
2022-12-20T23:15:53.234Z,427.00
2022-12-20T23:16:53.173Z,429.00
2022-12-20T23:17:52.999Z,428.00
2022-12-20T23:18:52.886Z,430.00
2022-12-20T23:19:52.759Z,431.00
2022-12-20T23:20:52.664Z,431.00
2022-12-20T23:21:52.526Z,430.00
2022-12-20T23:22:52.404Z,430.00
2022-12-20T23:23:55.836Z,428.00
2022-12-20T23:24:52.172Z,431.00
2022-12-20T23:25:52.062Z,433.00
2022-12-20T23:26:51.947Z,432.00
2022-12-20T23:27:51.817Z,433.00
2022-12-20T23:28:51.713Z,434.00
2022-12-20T23:29:51.588Z,433.00
2022-12-20T23:30:51.465Z,432.00
2022-12-20T23:31:51.441Z,432.00
2022-12-20T23:32:51.222Z,432.00
2022-12-20T23:33:51.107Z,431.00
2022-12-20T23:34:51.003Z,430.00
2022-12-20T23:35:50.911Z,431.00
2022-12-20T23:36:50.747Z,430.00
2022-12-20T23:37:50.668Z,427.00
2022-12-20T23:38:50.502Z,427.00
2022-12-20T23:39:50.381Z,427.00
2022-12-20T23:40:50.264Z,429.00
2022-12-20T23:41:50.145Z,429.00
2022-12-20T23:42:50.037Z,428.00
2022-12-20T23:43:49.909Z,428.00
2022-12-20T23:44:49.789Z,426.00
2022-12-20T23:45:49.740Z,424.00
2022-12-20T23:46:49.559Z,424.00
2022-12-20T23:47:49.447Z,423.00
2022-12-20T23:48:49.319Z,424.00
2022-12-20T23:49:49.196Z,427.00
2022-12-20T23:50:49.072Z,426.00
2022-12-20T23:51:48.973Z,427.00
2022-12-20T23:52:48.848Z,426.00
2022-12-20T23:53:48.736Z,426.00
2022-12-20T23:54:48.619Z,426.00
2022-12-20T23:55:48.494Z,425.00
2022-12-20T23:56:48.371Z,425.00
2022-12-20T23:57:48.254Z,425.00
2022-12-20T23:58:48.140Z,424.00
2022-12-20T23:59:48.021Z,422.00
